Archival Weather

South Haven Area Rgnl

South Haven, Michigan (KLWA)

Report from: Tuesday, September 19, 2023 9:55 AM EDT
Current time: Tuesday, July 16, 2024 5:44 AM EDT

Current weather – Weather history – Daily summaries
Weather forecast

Temperature15.3°C (59.5°F)
Dew point12.7°C (54.9°F)
Winds 4 kts (2.1 m/s, 4.6 mph) South (170°)
Visibility10 mi. (16.1 km)
Clouds Sky clear
Altimeter30.07 in.Hg (1018 mB)
Relative humidity84 %
Density altitude70 ft. (21 m)
Remarks Fully automated report
Automated weather observing station with precipitation discriminator
Flight conditions Visual Meteorological Conditions
Raw dataKLWA 191355Z AUTO 17004KT 10SM CLR 15/13 A3007 RMK AO2 T01530127
An error has occurred. This application may no longer respond until reloaded. Reload 🗙